Flight Track Log - Related Links

Times and Time Zones

All times are in EDT time to prevent confusion due to time zone crossing. See the OPT710 flight status page for this flight to view local times or setup timezone preferences in your user account.

Time Position Orientation Groundspeed Altitude Reporting Facility
EDT Latitude Longitude Course Direction KTS MPH feet Rate Location/Type
Thu 06:37:18 PM 32.7386 -117.2114 303° West 170 196 1,200  Level Los Angeles Center
Thu 06:38:20 PM 32.7800 -117.2872 303° West 228 262 5,300 3,840 Climbing Los Angeles Center
Thu 06:39:23 PM 32.8150 -117.3478 305° West 245 282 9,200 2,903 Climbing Los Angeles Center
Thu 06:40:24 PM 32.8531 -117.4108 306° West 239 275 11,300 2,710 Climbing Los Angeles Center
Thu 06:41:27 PM 32.9119 -117.4983 309° West 276 318 14,800 2,736 Climbing Los Angeles Center
Thu 06:42:29 PM 32.9831 -117.5494 329° Northwest 296 341 17,000 1,887 Climbing Los Angeles Center
Thu 06:43:31 PM 33.0444 -117.6289 313° West 326 375 18,700 1,887 Climbing Los Angeles Center
Thu 06:44:33 PM 33.1044 -117.7178 309° West 343 395 20,900 2,032 Climbing Los Angeles Center
Thu 06:45:35 PM 33.1672 -117.8122 308° West 359 413 22,900 1,984 Climbing Los Angeles Center
Thu 06:46:37 PM 33.2317 -117.9097 308° West 379 436 25,000 2,323 Climbing Los Angeles Center
Thu 06:47:39 PM 33.3300 -118.0150 318° Northwest 394 453 27,700 2,400 Climbing Los Angeles Center
Thu 06:48:42 PM 33.4142 -118.1022 319° Northwest 399 459 30,000 2,208 Climbing Los Angeles Center
Thu 06:49:44 PM 33.5164 -118.1617 334° Northwest 410 472 32,300 2,274 Climbing Los Angeles Center
Thu 06:50:46 PM 33.6242 -118.2117 339° North 416 479 34,700 2,419 Climbing Los Angeles Center
Thu 06:51:48 PM 33.7492 -118.2719 338° Northwest 420 483 37,300 1,887 Climbing Los Angeles Center
Thu 06:52:50 PM 33.8608 -118.3247 339° North 427 491 38,600 1,161 Climbing Los Angeles Center
Thu 06:53:52 PM 33.9764 -118.3778 339° North 450 518 39,700 1,306 Climbing Los Angeles Center
Thu 06:54:54 PM 34.0933 -118.4336 338° Northwest 454 522 41,300 1,597 Climbing Los Angeles Center
Thu 06:55:56 PM 34.2336 -118.5019 338° Northwest 455 524 43,000 1,344 Climbing Los Angeles Center
Thu 06:56:59 PM 34.3494 -118.5569 339° North 451 519 44,100 672 Climbing Los Angeles Center
Thu 06:58:01 PM 34.4672 -118.6147 338° Northwest 455 524 44,400 726 Climbing Los Angeles Center
Thu 06:59:03 PM 34.5869 -118.6711 339° North 461 531 45,600 774 Climbing Los Angeles Center
Thu 07:00:05 PM 34.7039 -118.7283 338° Northwest 455 524 46,000 387 Climbing Los Angeles Center
Thu 07:01:07 PM 34.8475 -118.7989 338° Northwest 462 532 46,400 387 Climbing Los Angeles Center
Thu 07:02:09 PM 34.9619 -118.8539 339° North 466 536 46,800 290 Climbing Los Angeles Center
Thu 07:03:11 PM 35.0822 -118.9128 338° Northwest 466 536 47,000 97 Climbing Los Angeles Center
Thu 07:04:13 PM 35.2056 -118.9719 339° North 478 550 47,000  Level Los Angeles Center
Thu 07:05:16 PM 35.3558 -119.0461 338° Northwest 486 559 47,000  Level Los Angeles Center
Thu 07:06:18 PM 35.4794 -119.1075 338° Northwest 483 556 47,000  Level Los Angeles Center
Thu 07:07:20 PM 35.6047 -119.1686 338° Northwest 486 559 47,000  Level Los Angeles Center
Thu 07:08:22 PM 35.7306 -119.2325 338° Northwest 491 565 47,000  Level Los Angeles Center
Thu 07:09:24 PM 35.8558 -119.2956 338° Northwest 490 564 47,000  Level Los Angeles Center
Thu 07:10:26 PM 36.0047 -119.3764 336° Northwest 490 564 47,000 -48 Level Los Angeles Center
Thu 07:11:28 PM 36.1228 -119.4575 331° Northwest 487 560 46,900 -387 Descending Los Angeles Center
Thu 07:12:30 PM 36.2419 -119.5375 332° Northwest 490 564 46,200 -672 Descending Los Angeles Center
Thu 07:13:33 PM 36.3625 -119.6203 331° Northwest 496 571 45,500 -720 Descending Los Angeles Center
Thu 07:14:35 PM 36.4850 -119.7039 331° Northwest 502 578 44,700 -955 Descending Los Angeles Center
Thu 07:15:45 PM 36.6297 -119.8019 331° Northwest 498 573 43,400 -1,591 Descending Oakland Center
Thu 07:16:47 PM 36.7511 -119.8850 331° Northwest 495 570 41,200 -2,829 Descending Oakland Center
Thu 07:17:48 PM 36.8903 -119.9811 331° Northwest 479 551 37,600 -3,317 Descending Oakland Center
Thu 07:18:50 PM 37.0122 -120.0667 331° Northwest 501 577 34,400 -3,171 Descending Oakland Center
Thu 07:19:51 PM 37.1369 -120.1533 331° Northwest 513 590 31,100 -3,268 Descending Oakland Center
Thu 07:20:53 PM 37.2617 -120.2414 331° Northwest 514 592 27,700 -3,220 Descending Oakland Center
Thu 07:21:54 PM 37.3861 -120.3194 334° Northwest 501 577 24,500 -2,362 Descending Oakland Center
Thu 07:23:00 PM 37.5167 -120.4333 325° Northwest 445 512 22,700 -1,524 Descending Northern Cal TRACON
Thu 07:24:00 PM 37.6000 -120.5167 322° Northwest 417 480 21,300 -1,361 Descending Northern Cal TRACON
Thu 07:24:59 PM 37.6728 -120.5950 320° Northwest 412 474 20,000 -1,550 Descending Oakland Center
Thu 07:26:00 PM 37.7756 -120.7014 321° Northwest 400 460 18,200 -1,610 Descending Oakland Center
Thu 07:27:02 PM 37.8608 -120.7875 321° Northwest 394 453 16,700 -1,073 Descending Oakland Center
Thu 07:28:03 PM 37.9456 -120.8722 322° Northwest 388 447 16,000 -639 Descending Oakland Center
Thu 07:29:04 PM 38.0269 -120.9536 322° Northwest 377 434 15,400 -829 Descending Oakland Center
Thu 07:30:06 PM 38.1078 -121.0503 317° Northwest 393 452 14,300 -1,190 Descending Oakland Center
Thu 07:31:00 PM 38.1833 -121.1500 314° West 415 478 13,100 -1,211 Descending Northern Cal TRACON
Thu 07:32:00 PM 38.2333 -121.2500 303° West 345 397 12,000 -1,211 Descending Northern Cal TRACON
Thu 07:32:54 PM 38.2833 -121.3333 307° West 289 333 10,800 -1,895 Descending Northern Cal TRACON
Thu 07:33:54 PM 38.3500 -121.4000 322° Northwest 286 329 8,400 -2,200 Descending Northern Cal TRACON
Thu 07:34:54 PM 38.4000 -121.4833 307° West 287 330 6,400 -1,900 Descending Northern Cal TRACON
Thu 07:35:54 PM 38.4500 -121.5500 314° West 269 310 4,600 -1,200 Descending Northern Cal TRACON
Thu 07:36:54 PM 38.5000 -121.6000 322° Northwest 253 291 4,000 -300 Descending Northern Cal TRACON
Thu 07:37:54 PM 38.5667 -121.6500 330° Northwest 249 287 4,000 -72 Level Northern Cal TRACON
Thu 07:38:17 PM 38.5764 -121.6536 344° North 249 287 3,900 -714 Descending Oakland Center
Thu 07:39:18 PM 38.6617 -121.6744 349° North 261 300 3,000 -780 Descending Oakland Center
Thu 07:40:20 PM 38.7342 -121.6678 North 259 298 2,300 -683 Descending Oakland Center
Thu 07:41:21 PM 38.7631 -121.6239 50° Northeast 216 249 1,600 -702 Descending Oakland Center
Thu 07:41:54 PM 38.7500 -121.6000 125° Southeast 137 158 1,200 -839 Descending Northern Cal TRACON
Thu 07:42:54 PM 38.7167 -121.6000 180° South 124 143 300 -900 Descending Northern Cal TRACON

Login

Don't have an account? Register now (free) for customized features, flight alerts, and more!